BAW1 EGLL-KJFK
Flight info
| Callsign | BAW1 |
|---|---|
| Flight time | N/A |
| Altitude | 26000 |
| Route | CPT Q63 MALBY SL2 C/KESUP/N0730F260F450 SL2 C/LESLU/M200F450F600 DCT 5040N01500W 5050N02000W 5030N03000W 4916N04000W 4703N05000W 4610N05300W 4414N06000W 4246N06500W SM1 LFV/N0430F350 SM1 DCT SEY PARCH DCT |
| Aircraft | CONC/H-SDFHIRY/C |
Departure
| Time | N/A |
|---|---|
| Airport | London Heathrow Airport (EGLL) |
Arrival
| Time | 2026-05-07 19:17 |
|---|---|
| Airport | John F. Kennedy International Airport (KJFK) |
| Time | Latitude | Longitude | Altitude | Speed | Heading |
|---|---|---|---|---|---|
| 2026-05-07 17:27 | 49.24791 | -40.07367 | 53804 ft | 1147 kts | 256° |
| 2026-05-07 17:27 | 49.22839 | -40.19047 | 53822 ft | 1147 kts | 256° |
| 2026-05-07 17:28 | 49.18808 | -40.42677 | 53857 ft | 1147 kts | 255° |
| 2026-05-07 17:28 | 49.14676 | -40.66260 | 53892 ft | 1147 kts | 255° |
| 2026-05-07 17:29 | 49.10469 | -40.89763 | 53921 ft | 1147 kts | 255° |
| 2026-05-07 17:29 | 49.06234 | -41.13064 | 53949 ft | 1147 kts | 255° |
| 2026-05-07 17:30 | 49.01935 | -41.36471 | 53977 ft | 1147 kts | 255° |
| 2026-05-07 17:30 | 48.97604 | -41.59856 | 54003 ft | 1147 kts | 254° |
| 2026-05-07 17:31 | 48.93247 | -41.83189 | 54030 ft | 1147 kts | 254° |
| 2026-05-07 17:31 | 48.89588 | -42.02588 | 54052 ft | 1146 kts | 254° |
| 2026-05-07 17:32 | 48.85143 | -42.25859 | 54075 ft | 1145 kts | 254° |
| 2026-05-07 17:32 | 48.80652 | -42.49046 | 54088 ft | 1145 kts | 253° |
| 2026-05-07 17:33 | 48.76106 | -42.72200 | 54104 ft | 1145 kts | 253° |
| 2026-05-07 17:33 | 48.71515 | -42.95297 | 54122 ft | 1145 kts | 253° |
| 2026-05-07 17:34 | 48.66905 | -43.18228 | 54143 ft | 1145 kts | 253° |
| 2026-05-07 17:34 | 48.62227 | -43.41240 | 54167 ft | 1145 kts | 253° |
| 2026-05-07 17:35 | 48.57495 | -43.64262 | 54195 ft | 1144 kts | 253° |
| 2026-05-07 17:35 | 48.52728 | -43.87195 | 54223 ft | 1144 kts | 253° |
| 2026-05-07 17:36 | 48.47919 | -44.10064 | 54250 ft | 1144 kts | 252° |
| 2026-05-07 17:36 | 48.43083 | -44.32792 | 54277 ft | 1144 kts | 252° |
| 2026-05-07 17:37 | 48.38179 | -44.55586 | 54306 ft | 1144 kts | 252° |
| 2026-05-07 17:37 | 48.33223 | -44.78369 | 54334 ft | 1144 kts | 252° |
| 2026-05-07 17:38 | 48.28230 | -45.01072 | 54365 ft | 1144 kts | 252° |
| 2026-05-07 17:38 | 48.23223 | -45.23596 | 54397 ft | 1144 kts | 252° |
| 2026-05-07 17:39 | 48.18143 | -45.46205 | 54429 ft | 1144 kts | 251° |
| 2026-05-07 17:39 | 48.13021 | -45.68761 | 54462 ft | 1144 kts | 251° |
| 2026-05-07 17:40 | 48.07853 | -45.91280 | 54495 ft | 1143 kts | 251° |
| 2026-05-07 17:40 | 48.02674 | -46.13610 | 54526 ft | 1143 kts | 251° |
| 2026-05-07 17:41 | 47.97414 | -46.36055 | 54558 ft | 1143 kts | 251° |
| 2026-05-07 17:41 | 47.92113 | -46.58443 | 54592 ft | 1143 kts | 251° |
| 2026-05-07 17:42 | 47.86778 | -46.80745 | 54630 ft | 1142 kts | 250° |
| 2026-05-07 17:42 | 47.81396 | -47.03020 | 54667 ft | 1142 kts | 250° |
| 2026-05-07 17:43 | 47.76010 | -47.25088 | 54702 ft | 1141 kts | 250° |
| 2026-05-07 17:43 | 47.70552 | -47.47232 | 54740 ft | 1142 kts | 250° |
| 2026-05-07 17:44 | 47.65043 | -47.69360 | 54787 ft | 1142 kts | 250° |
| 2026-05-07 17:44 | 47.59496 | -47.91427 | 54825 ft | 1142 kts | 250° |
| 2026-05-07 17:45 | 47.53941 | -48.13312 | 54845 ft | 1141 kts | 249° |
| 2026-05-07 17:45 | 47.48315 | -48.35264 | 54865 ft | 1141 kts | 249° |
| 2026-05-07 17:46 | 47.42645 | -48.57177 | 54887 ft | 1141 kts | 249° |
| 2026-05-07 17:46 | 47.36937 | -48.79028 | 54910 ft | 1141 kts | 249° |
| 2026-05-07 17:47 | 47.31185 | -49.00844 | 54935 ft | 1140 kts | 249° |
| 2026-05-07 17:47 | 47.25381 | -49.22598 | 54959 ft | 1140 kts | 248° |
| 2026-05-07 17:48 | 47.13500 | -49.66550 | 55005 ft | 1141 kts | 248° |
| 2026-05-07 17:49 | 47.07629 | -49.88082 | 55028 ft | 1141 kts | 248° |
| 2026-05-07 17:49 | 47.01686 | -50.09637 | 55056 ft | 1140 kts | 248° |
| 2026-05-07 17:50 | 46.95683 | -50.31173 | 55080 ft | 1140 kts | 248° |
| 2026-05-07 17:50 | 46.89635 | -50.52642 | 55106 ft | 1140 kts | 248° |
| 2026-05-07 17:51 | 46.83583 | -50.73917 | 55133 ft | 1139 kts | 247° |
| 2026-05-07 17:51 | 46.77463 | -50.95246 | 55162 ft | 1139 kts | 247° |
| 2026-05-07 17:52 | 46.71293 | -51.16570 | 55193 ft | 1139 kts | 247° |
| 2026-05-07 17:52 | 46.65090 | -51.37840 | 55225 ft | 1139 kts | 247° |
| 2026-05-07 17:53 | 46.58892 | -51.58919 | 55259 ft | 1138 kts | 247° |
| 2026-05-07 17:53 | 46.52625 | -51.80044 | 55290 ft | 1138 kts | 246° |
| 2026-05-07 17:54 | 46.46315 | -52.01130 | 55320 ft | 1138 kts | 246° |
| 2026-05-07 17:54 | 46.39977 | -52.22160 | 55350 ft | 1138 kts | 246° |
| 2026-05-07 17:55 | 46.33651 | -52.43188 | 55379 ft | 1138 kts | 246° |
| 2026-05-07 17:55 | 46.27391 | -52.64245 | 55423 ft | 1139 kts | 247° |
| 2026-05-07 17:56 | 46.21241 | -52.85363 | 55468 ft | 1139 kts | 248° |
| 2026-05-07 17:56 | 46.15283 | -53.06381 | 55501 ft | 1138 kts | 248° |
| 2026-05-07 17:57 | 46.10393 | -53.24161 | 55523 ft | 1138 kts | 249° |
| 2026-05-07 17:57 | 46.03897 | -53.48931 | 55541 ft | 1137 kts | 250° |
| 2026-05-07 17:58 | 45.98600 | -53.70388 | 55553 ft | 1136 kts | 250° |
| 2026-05-07 17:58 | 45.93441 | -53.91869 | 55563 ft | 1136 kts | 251° |
| 2026-05-07 17:59 | 45.88351 | -54.13207 | 55569 ft | 1136 kts | 251° |
| 2026-05-07 17:59 | 45.83167 | -54.34650 | 55581 ft | 1136 kts | 250° |
| 2026-05-07 18:00 | 45.77834 | -54.55993 | 55598 ft | 1136 kts | 250° |
| 2026-05-07 18:00 | 45.72384 | -54.77245 | 55614 ft | 1137 kts | 249° |
| 2026-05-07 18:01 | 45.66851 | -54.98455 | 55635 ft | 1138 kts | 249° |
| 2026-05-07 18:01 | 45.61273 | -55.19635 | 55659 ft | 1138 kts | 249° |
| 2026-05-07 18:02 | 45.52887 | -55.51380 | 55691 ft | 1139 kts | 249° |
| 2026-05-07 18:03 | 45.47333 | -55.72402 | 55710 ft | 1140 kts | 249° |
| 2026-05-07 18:03 | 45.41688 | -55.93551 | 55729 ft | 1140 kts | 249° |
| 2026-05-07 18:04 | 45.35990 | -56.14623 | 55747 ft | 1141 kts | 248° |
| 2026-05-07 18:04 | 45.30234 | -56.35663 | 55765 ft | 1141 kts | 248° |
| 2026-05-07 18:05 | 45.24444 | -56.56629 | 55800 ft | 1138 kts | 248° |
| 2026-05-07 18:05 | 45.18689 | -56.77310 | 55831 ft | 1133 kts | 248° |
| 2026-05-07 18:06 | 45.12873 | -56.98071 | 55820 ft | 1134 kts | 248° |
| 2026-05-07 18:06 | 45.07012 | -57.18836 | 55817 ft | 1135 kts | 248° |
| 2026-05-07 18:07 | 45.01116 | -57.39549 | 55825 ft | 1135 kts | 248° |
| 2026-05-07 18:07 | 44.95178 | -57.60220 | 55831 ft | 1136 kts | 248° |
| 2026-05-07 18:08 | 44.89198 | -57.80854 | 55844 ft | 1137 kts | 247° |
| 2026-05-07 18:08 | 44.83166 | -58.01491 | 55858 ft | 1137 kts | 247° |
| 2026-05-07 18:09 | 44.77129 | -58.21983 | 55860 ft | 1139 kts | 247° |
| 2026-05-07 18:09 | 44.71017 | -58.42567 | 55871 ft | 1140 kts | 247° |
| 2026-05-07 18:10 | 44.64870 | -58.63106 | 55884 ft | 1140 kts | 247° |
| 2026-05-07 18:10 | 44.58681 | -58.83621 | 55891 ft | 1141 kts | 246° |
| 2026-05-07 18:11 | 44.52478 | -59.04014 | 55902 ft | 1141 kts | 246° |
| 2026-05-07 18:11 | 44.46184 | -59.24439 | 55912 ft | 1142 kts | 246° |
| 2026-05-07 18:12 | 44.40902 | -59.41386 | 55917 ft | 1142 kts | 246° |
| 2026-05-07 18:12 | 44.34549 | -59.61785 | 55917 ft | 1143 kts | 246° |
| 2026-05-07 18:13 | 44.28262 | -59.82200 | 55924 ft | 1144 kts | 247° |
| 2026-05-07 18:13 | 44.22094 | -60.02665 | 55931 ft | 1145 kts | 248° |
| 2026-05-07 18:14 | 44.16117 | -60.23264 | 55941 ft | 1145 kts | 249° |
| 2026-05-07 18:14 | 44.10469 | -60.43845 | 55956 ft | 1145 kts | 249° |
| 2026-05-07 18:15 | 44.04940 | -60.64640 | 56007 ft | 1144 kts | 250° |
| 2026-05-07 18:15 | 43.99488 | -60.85355 | 56085 ft | 1141 kts | 250° |
| 2026-05-07 18:16 | 43.93992 | -61.06014 | 56136 ft | 1140 kts | 249° |
| 2026-05-07 18:16 | 43.88364 | -61.26565 | 56172 ft | 1139 kts | 249° |
| 2026-05-07 18:17 | 43.82629 | -61.47019 | 56195 ft | 1139 kts | 249° |
| 2026-05-07 18:17 | 43.76817 | -61.67417 | 56211 ft | 1138 kts | 248° |
| 2026-05-07 18:18 | 43.70954 | -61.87773 | 56223 ft | 1138 kts | 248° |
| 2026-05-07 18:18 | 43.65107 | -62.07941 | 56235 ft | 1138 kts | 248° |
| 2026-05-07 18:19 | 43.59195 | -62.28251 | 56253 ft | 1138 kts | 248° |
| 2026-05-07 18:19 | 43.53284 | -62.48496 | 56261 ft | 1137 kts | 248° |
| 2026-05-07 18:20 | 43.47356 | -62.68705 | 56276 ft | 1136 kts | 248° |
| 2026-05-07 18:20 | 43.41451 | -62.88693 | 56289 ft | 1136 kts | 248° |
| 2026-05-07 18:21 | 43.35450 | -63.08820 | 56310 ft | 1135 kts | 248° |
| 2026-05-07 18:21 | 43.29414 | -63.28875 | 56327 ft | 1135 kts | 248° |
| 2026-05-07 18:22 | 43.23339 | -63.48876 | 56346 ft | 1135 kts | 247° |
| 2026-05-07 18:22 | 43.17229 | -63.68827 | 56375 ft | 1134 kts | 247° |
| 2026-05-07 18:23 | 43.11076 | -63.88768 | 56401 ft | 1134 kts | 247° |
| 2026-05-07 18:23 | 43.04940 | -64.08511 | 56434 ft | 1134 kts | 247° |
| 2026-05-07 18:24 | 42.98918 | -64.28426 | 56470 ft | 1133 kts | 249° |
| 2026-05-07 18:24 | 42.93334 | -64.48571 | 56507 ft | 1133 kts | 250° |
| 2026-05-07 18:25 | 42.88205 | -64.68901 | 56545 ft | 1133 kts | 252° |
| 2026-05-07 18:25 | 42.83523 | -64.89439 | 56586 ft | 1133 kts | 253° |
| 2026-05-07 18:26 | 42.79225 | -65.10099 | 56628 ft | 1133 kts | 255° |
| 2026-05-07 18:26 | 42.75198 | -65.30827 | 56668 ft | 1133 kts | 256° |
| 2026-05-07 18:27 | 42.71383 | -65.51535 | 56705 ft | 1133 kts | 256° |
| 2026-05-07 18:27 | 42.67711 | -65.72399 | 56741 ft | 1133 kts | 257° |
| 2026-05-07 18:28 | 42.64201 | -65.93246 | 56775 ft | 1132 kts | 257° |
| 2026-05-07 18:28 | 42.60867 | -66.14004 | 56807 ft | 1132 kts | 258° |
| 2026-05-07 18:29 | 42.57738 | -66.34978 | 56840 ft | 1132 kts | 259° |
| 2026-05-07 18:29 | 42.54836 | -66.55983 | 56871 ft | 1132 kts | 259° |
| 2026-05-07 18:30 | 42.52030 | -66.76998 | 56906 ft | 1132 kts | 259° |
| 2026-05-07 18:30 | 42.49208 | -66.97999 | 56936 ft | 1133 kts | 259° |
| 2026-05-07 18:31 | 42.46264 | -67.18963 | 56943 ft | 1133 kts | 259° |
| 2026-05-07 18:31 | 42.43202 | -67.39904 | 56948 ft | 1133 kts | 258° |
| 2026-05-07 18:32 | 42.40100 | -67.60523 | 56947 ft | 1100 kts | 258° |
| 2026-05-07 18:32 | 42.38575 | -67.70515 | 56951 ft | 1070 kts | 258° |
| 2026-05-07 18:32 | 42.37075 | -67.80260 | 56954 ft | 1042 kts | 258° |
| 2026-05-07 18:32 | 42.35609 | -67.89730 | 56956 ft | 1015 kts | 258° |
| 2026-05-07 18:33 | 42.34176 | -67.98939 | 56960 ft | 988 kts | 258° |
| 2026-05-07 18:33 | 42.32778 | -68.07891 | 56963 ft | 960 kts | 258° |
| 2026-05-07 18:33 | 42.31418 | -68.16591 | 56966 ft | 932 kts | 258° |
| 2026-05-07 18:33 | 42.30094 | -68.25039 | 56968 ft | 904 kts | 258° |
| 2026-05-07 18:34 | 42.28812 | -68.33213 | 56923 ft | 876 kts | 258° |
| 2026-05-07 18:34 | 42.27567 | -68.41141 | 56580 ft | 854 kts | 258° |
| 2026-05-07 18:34 | 42.26341 | -68.48934 | 55579 ft | 840 kts | 258° |
| 2026-05-07 18:34 | 42.25135 | -68.56580 | 54730 ft | 821 kts | 257° |
| 2026-05-07 18:35 | 42.23955 | -68.64024 | 53868 ft | 802 kts | 257° |
| 2026-05-07 18:35 | 42.22810 | -68.71210 | 53039 ft | 784 kts | 257° |
| 2026-05-07 18:35 | 42.21672 | -68.78318 | 52201 ft | 765 kts | 257° |
| 2026-05-07 18:35 | 42.20555 | -68.85252 | 51379 ft | 747 kts | 257° |
| 2026-05-07 18:36 | 42.19458 | -68.92026 | 50537 ft | 730 kts | 257° |
| 2026-05-07 18:36 | 42.18385 | -68.98624 | 49743 ft | 713 kts | 257° |
| 2026-05-07 18:36 | 42.17330 | -69.05081 | 48952 ft | 697 kts | 257° |
| 2026-05-07 18:36 | 42.16294 | -69.11393 | 48185 ft | 681 kts | 257° |
| 2026-05-07 18:37 | 42.15280 | -69.17549 | 47461 ft | 665 kts | 257° |
| 2026-05-07 18:37 | 42.14299 | -69.23487 | 46759 ft | 650 kts | 257° |
| 2026-05-07 18:37 | 42.13323 | -69.29365 | 46055 ft | 635 kts | 257° |
| 2026-05-07 18:37 | 42.12366 | -69.35109 | 45370 ft | 621 kts | 257° |
| 2026-05-07 18:38 | 42.11429 | -69.40720 | 44723 ft | 607 kts | 258° |
| 2026-05-07 18:38 | 42.10509 | -69.46216 | 44058 ft | 594 kts | 258° |
| 2026-05-07 18:38 | 42.09608 | -69.51581 | 43456 ft | 580 kts | 258° |
| 2026-05-07 18:38 | 42.08726 | -69.56820 | 42902 ft | 567 kts | 257° |
| 2026-05-07 18:39 | 42.07863 | -69.61945 | 42335 ft | 554 kts | 257° |
| 2026-05-07 18:39 | 42.07022 | -69.66935 | 41813 ft | 541 kts | 257° |
| 2026-05-07 18:39 | 42.06195 | -69.71821 | 41273 ft | 528 kts | 257° |
| 2026-05-07 18:39 | 42.05385 | -69.76585 | 40755 ft | 515 kts | 256° |
| 2026-05-07 18:40 | 42.04604 | -69.81171 | 40252 ft | 503 kts | 256° |
| 2026-05-07 18:40 | 42.03830 | -69.85708 | 39732 ft | 491 kts | 256° |
| 2026-05-07 18:40 | 42.03076 | -69.90127 | 39186 ft | 478 kts | 256° |
| 2026-05-07 18:40 | 42.02342 | -69.94420 | 38498 ft | 465 kts | 255° |
| 2026-05-07 18:41 | 42.01634 | -69.98557 | 37930 ft | 440 kts | 255° |
| 2026-05-07 18:41 | 42.00926 | -70.02427 | 37438 ft | 414 kts | 250° |
| 2026-05-07 18:41 | 41.99729 | -70.05862 | 36946 ft | 404 kts | 241° |
| 2026-05-07 18:41 | 41.98196 | -70.09028 | 36613 ft | 403 kts | 239° |
| 2026-05-07 18:42 | 41.96577 | -70.12083 | 36328 ft | 402 kts | 238° |
| 2026-05-07 18:42 | 41.94918 | -70.15124 | 36048 ft | 405 kts | 237° |
| 2026-05-07 18:42 | 41.93238 | -70.18170 | 35832 ft | 405 kts | 237° |
| 2026-05-07 18:43 | 41.89864 | -70.24270 | 35812 ft | 407 kts | 237° |
| 2026-05-07 18:43 | 41.86511 | -70.30380 | 35810 ft | 407 kts | 238° |
| 2026-05-07 18:44 | 41.83186 | -70.36536 | 35808 ft | 407 kts | 238° |
| 2026-05-07 18:44 | 41.79843 | -70.42684 | 35809 ft | 408 kts | 237° |
| 2026-05-07 18:45 | 41.76499 | -70.48788 | 35810 ft | 409 kts | 237° |
| 2026-05-07 18:45 | 41.73125 | -70.54955 | 35815 ft | 410 kts | 237° |
| 2026-05-07 18:46 | 41.69749 | -70.61126 | 35818 ft | 411 kts | 237° |
| 2026-05-07 18:46 | 41.66355 | -70.67297 | 35817 ft | 412 kts | 237° |
| 2026-05-07 18:47 | 41.62974 | -70.73441 | 35814 ft | 412 kts | 237° |
| 2026-05-07 18:47 | 41.59570 | -70.79620 | 35813 ft | 413 kts | 237° |
| 2026-05-07 18:48 | 41.56150 | -70.85806 | 35812 ft | 414 kts | 237° |
| 2026-05-07 18:48 | 41.52724 | -70.91997 | 35811 ft | 415 kts | 237° |
| 2026-05-07 18:49 | 41.49288 | -70.98192 | 35811 ft | 415 kts | 237° |
| 2026-05-07 18:49 | 41.47566 | -71.01287 | 35698 ft | 415 kts | 237° |
| 2026-05-07 18:49 | 41.45840 | -71.04389 | 35189 ft | 415 kts | 237° |
| 2026-05-07 18:49 | 41.44121 | -71.07477 | 34629 ft | 415 kts | 237° |
| 2026-05-07 18:50 | 41.42418 | -71.10538 | 34073 ft | 415 kts | 237° |
| 2026-05-07 18:50 | 41.40697 | -71.13626 | 33512 ft | 417 kts | 236° |
| 2026-05-07 18:50 | 41.38960 | -71.16737 | 32950 ft | 420 kts | 236° |
| 2026-05-07 18:50 | 41.37211 | -71.19864 | 32388 ft | 422 kts | 236° |
| 2026-05-07 18:51 | 41.35449 | -71.23013 | 31826 ft | 425 kts | 236° |
| 2026-05-07 18:51 | 41.33675 | -71.26182 | 31263 ft | 427 kts | 236° |
| 2026-05-07 18:51 | 41.31893 | -71.29362 | 30700 ft | 430 kts | 235° |
| 2026-05-07 18:51 | 41.30093 | -71.32569 | 30136 ft | 433 kts | 235° |
| 2026-05-07 18:52 | 41.28282 | -71.35788 | 29574 ft | 436 kts | 234° |
| 2026-05-07 18:52 | 41.26466 | -71.39014 | 29010 ft | 435 kts | 234° |
| 2026-05-07 18:52 | 41.24655 | -71.42226 | 28448 ft | 433 kts | 235° |
| 2026-05-07 18:52 | 41.22874 | -71.45387 | 27893 ft | 432 kts | 234° |
| 2026-05-07 18:53 | 41.21078 | -71.48573 | 27331 ft | 430 kts | 235° |
| 2026-05-07 18:53 | 41.19283 | -71.51757 | 26768 ft | 429 kts | 235° |
| 2026-05-07 18:53 | 41.17494 | -71.54925 | 26205 ft | 427 kts | 235° |
| 2026-05-07 18:53 | 41.16015 | -71.58323 | 25630 ft | 426 kts | 250° |
| 2026-05-07 18:54 | 41.15402 | -71.62165 | 25076 ft | 428 kts | 258° |
| 2026-05-07 18:54 | 41.14994 | -71.66075 | 24516 ft | 427 kts | 257° |
| 2026-05-07 18:54 | 41.14499 | -71.69944 | 23954 ft | 424 kts | 256° |
| 2026-05-07 18:54 | 41.13975 | -71.73794 | 23391 ft | 422 kts | 256° |
| 2026-05-07 18:55 | 41.13445 | -71.77621 | 22828 ft | 420 kts | 256° |
| 2026-05-07 18:55 | 41.12916 | -71.81426 | 22265 ft | 419 kts | 257° |
| 2026-05-07 18:55 | 41.12390 | -71.85219 | 21703 ft | 417 kts | 257° |
| 2026-05-07 18:55 | 41.11877 | -71.88951 | 21147 ft | 415 kts | 257° |
| 2026-05-07 18:56 | 41.11369 | -71.92720 | 20585 ft | 415 kts | 257° |
| 2026-05-07 18:56 | 41.10876 | -71.96482 | 20022 ft | 413 kts | 258° |
| 2026-05-07 18:56 | 41.10406 | -72.00235 | 19459 ft | 411 kts | 258° |
| 2026-05-07 18:56 | 41.09954 | -72.03952 | 18897 ft | 406 kts | 258° |
| 2026-05-07 18:57 | 41.09506 | -72.07636 | 18337 ft | 404 kts | 259° |
| 2026-05-07 18:57 | 41.09028 | -72.11307 | 17772 ft | 402 kts | 256° |
| 2026-05-07 18:57 | 41.08341 | -72.14890 | 17211 ft | 400 kts | 253° |
| 2026-05-07 18:57 | 41.07540 | -72.18363 | 16657 ft | 398 kts | 252° |
| 2026-05-07 18:58 | 41.06680 | -72.21850 | 16093 ft | 396 kts | 251° |
| 2026-05-07 18:58 | 41.05838 | -72.25271 | 15531 ft | 385 kts | 252° |
| 2026-05-07 18:58 | 41.05043 | -72.28610 | 14969 ft | 375 kts | 252° |
| 2026-05-07 18:58 | 41.04287 | -72.31878 | 14407 ft | 369 kts | 253° |
| 2026-05-07 18:59 | 41.03546 | -72.35136 | 13843 ft | 368 kts | 253° |
| 2026-05-07 18:59 | 41.02815 | -72.38383 | 13280 ft | 367 kts | 253° |
| 2026-05-07 18:59 | 41.02100 | -72.41580 | 12724 ft | 366 kts | 253° |
| 2026-05-07 18:59 | 41.01382 | -72.44814 | 12190 ft | 365 kts | 253° |
| 2026-05-07 19:00 | 41.00669 | -72.48045 | 12002 ft | 366 kts | 253° |
| 2026-05-07 19:00 | 40.99954 | -72.51285 | 11984 ft | 367 kts | 253° |
| 2026-05-07 19:00 | 40.99234 | -72.54523 | 11983 ft | 367 kts | 253° |
| 2026-05-07 19:00 | 40.98503 | -72.57755 | 11983 ft | 367 kts | 253° |
| 2026-05-07 19:01 | 40.97762 | -72.60956 | 11981 ft | 355 kts | 253° |
| 2026-05-07 19:01 | 40.97047 | -72.63963 | 11980 ft | 329 kts | 252° |
| 2026-05-07 19:01 | 40.96589 | -72.65815 | 11980 ft | 311 kts | 252° |
| 2026-05-07 19:01 | 40.95907 | -72.68512 | 11985 ft | 309 kts | 252° |
| 2026-05-07 19:02 | 40.95243 | -72.71104 | 11979 ft | 283 kts | 251° |
| 2026-05-07 19:02 | 40.94641 | -72.73443 | 11973 ft | 256 kts | 251° |
| 2026-05-07 19:02 | 40.94077 | -72.75640 | 11980 ft | 250 kts | 252° |
| 2026-05-07 19:02 | 40.93463 | -72.77788 | 11973 ft | 250 kts | 238° |
| 2026-05-07 19:03 | 40.92264 | -72.79487 | 11896 ft | 256 kts | 226° |
| 2026-05-07 19:03 | 40.90906 | -72.81025 | 11625 ft | 258 kts | 225° |
| 2026-05-07 19:03 | 40.89529 | -72.82524 | 11350 ft | 260 kts | 224° |
| 2026-05-07 19:03 | 40.88112 | -72.84040 | 11072 ft | 263 kts | 224° |
| 2026-05-07 19:04 | 40.86678 | -72.85551 | 10766 ft | 264 kts | 223° |
| 2026-05-07 19:04 | 40.85230 | -72.87060 | 10450 ft | 266 kts | 223° |
| 2026-05-07 19:04 | 40.83763 | -72.88571 | 10135 ft | 268 kts | 223° |
| 2026-05-07 19:04 | 40.82276 | -72.90084 | 9819 ft | 271 kts | 222° |
| 2026-05-07 19:05 | 40.80773 | -72.91592 | 9505 ft | 273 kts | 221° |
| 2026-05-07 19:05 | 40.79244 | -72.93097 | 9189 ft | 275 kts | 220° |
| 2026-05-07 19:05 | 40.77687 | -72.94593 | 8970 ft | 277 kts | 220° |
| 2026-05-07 19:05 | 40.76119 | -72.96086 | 8966 ft | 278 kts | 220° |
| 2026-05-07 19:06 | 40.74550 | -72.97576 | 8967 ft | 278 kts | 220° |
| 2026-05-07 19:06 | 40.71413 | -73.00563 | 8968 ft | 278 kts | 220° |
| 2026-05-07 19:06 | 40.70034 | -73.02269 | 8966 ft | 274 kts | 236° |
| 2026-05-07 19:07 | 40.68904 | -73.04317 | 8970 ft | 272 kts | 239° |
| 2026-05-07 19:07 | 40.67866 | -73.06362 | 8969 ft | 271 kts | 240° |
| 2026-05-07 19:07 | 40.66831 | -73.08442 | 8969 ft | 271 kts | 240° |
| 2026-05-07 19:07 | 40.65802 | -73.10524 | 8969 ft | 271 kts | 240° |
| 2026-05-07 19:08 | 40.64770 | -73.12618 | 8969 ft | 271 kts | 240° |
| 2026-05-07 19:08 | 40.63743 | -73.14705 | 8969 ft | 271 kts | 240° |
| 2026-05-07 19:08 | 40.62716 | -73.16793 | 8969 ft | 271 kts | 240° |
| 2026-05-07 19:08 | 40.61689 | -73.18882 | 8969 ft | 271 kts | 240° |
| 2026-05-07 19:09 | 40.60661 | -73.20973 | 8969 ft | 271 kts | 240° |
| 2026-05-07 19:09 | 40.59636 | -73.23060 | 8969 ft | 271 kts | 240° |
| 2026-05-07 19:09 | 40.58609 | -73.25150 | 8970 ft | 272 kts | 240° |
| 2026-05-07 19:09 | 40.57597 | -73.27211 | 8970 ft | 272 kts | 240° |
| 2026-05-07 19:10 | 40.56573 | -73.29299 | 8970 ft | 272 kts | 240° |
| 2026-05-07 19:10 | 40.55549 | -73.31386 | 8862 ft | 272 kts | 240° |
| 2026-05-07 19:10 | 40.54522 | -73.33478 | 8455 ft | 271 kts | 240° |
| 2026-05-07 19:10 | 40.53502 | -73.35556 | 7996 ft | 270 kts | 240° |
| 2026-05-07 19:11 | 40.52484 | -73.37631 | 7536 ft | 269 kts | 240° |
| 2026-05-07 19:11 | 40.51473 | -73.39694 | 7081 ft | 268 kts | 240° |
| 2026-05-07 19:11 | 40.50461 | -73.41756 | 6627 ft | 268 kts | 240° |
| 2026-05-07 19:11 | 40.49704 | -73.43932 | 6165 ft | 258 kts | 266° |
| 2026-05-07 19:12 | 40.49965 | -73.46180 | 5668 ft | 249 kts | 301° |
| 2026-05-07 19:12 | 40.51112 | -73.47847 | 5170 ft | 246 kts | 313° |
| 2026-05-07 19:12 | 40.52190 | -73.49580 | 4715 ft | 244 kts | 306° |
| 2026-05-07 19:12 | 40.53172 | -73.51405 | 4323 ft | 244 kts | 304° |
| 2026-05-07 19:13 | 40.54105 | -73.53267 | 3968 ft | 244 kts | 302° |
| 2026-05-07 19:13 | 40.54969 | -73.55157 | 3633 ft | 244 kts | 301° |
| 2026-05-07 19:13 | 40.55836 | -73.57083 | 3302 ft | 244 kts | 301° |
| 2026-05-07 19:13 | 40.56708 | -73.59005 | 2974 ft | 244 kts | 301° |
| 2026-05-07 19:14 | 40.57578 | -73.60921 | 2649 ft | 243 kts | 301° |
| 2026-05-07 19:14 | 40.58437 | -73.62816 | 2326 ft | 236 kts | 301° |
| 2026-05-07 19:14 | 40.59260 | -73.64633 | 2017 ft | 225 kts | 302° |
| 2026-05-07 19:14 | 40.60033 | -73.66339 | 1727 ft | 206 kts | 302° |
| 2026-05-07 19:15 | 40.60717 | -73.67849 | 1474 ft | 189 kts | 302° |
| 2026-05-07 19:15 | 40.61388 | -73.69330 | 1224 ft | 188 kts | 304° |
| 2026-05-07 19:15 | 40.62056 | -73.70803 | 976 ft | 188 kts | 304° |
| 2026-05-07 19:15 | 40.62720 | -73.72276 | 702 ft | 187 kts | 304° |
| 2026-05-07 19:16 | 40.63378 | -73.73750 | 450 ft | 186 kts | 304° |
| 2026-05-07 19:16 | 40.64048 | -73.75206 | 213 ft | 185 kts | 304° |
| 2026-05-07 19:16 | 40.64702 | -73.76670 | 29 ft | 183 kts | 303° |
| 2026-05-07 19:16 | 40.65253 | -73.77872 | 25 ft | 96 kts | 301° |
| 2026-05-07 19:17 | 40.65408 | -73.78248 | 25 ft | 27 kts | 291° |
| 2026-05-07 19:17 | 40.65419 | -73.78350 | 25 ft | 5 kts | 230° |
| 2026-05-07 19:17 | 40.65386 | -73.78388 | 25 ft | 7 kts | 211° |
| 2026-05-07 19:17 | 40.65342 | -73.78422 | 25 ft | 7 kts | 211° |
| 2026-05-07 19:18 | 40.65300 | -73.78440 | 25 ft | 6 kts | 170° |
| 2026-05-07 19:18 | 40.65266 | -73.78416 | 25 ft | 8 kts | 151° |
| 2026-05-07 19:18 | 40.65217 | -73.78406 | 25 ft | 9 kts | 194° |
| 2026-05-07 19:18 | 40.65168 | -73.78435 | 25 ft | 7 kts | 203° |
| 2026-05-07 19:19 | 40.65109 | -73.78468 | 25 ft | 8 kts | 203° |
| 2026-05-07 19:19 | 40.65071 | -73.78481 | 25 ft | 4 kts | 187° |
| 2026-05-07 19:19 | 40.65035 | -73.78487 | 25 ft | 7 kts | 187° |
| 2026-05-07 19:19 | 40.64988 | -73.78493 | 25 ft | 4 kts | 178° |
| 2026-05-07 19:20 | 40.64978 | -73.78482 | 25 ft | 3 kts | 133° |
| 2026-05-07 19:20 | 40.64968 | -73.78462 | 25 ft | 2 kts | 109° |
| 2026-05-07 19:20 | 40.64962 | -73.78438 | 25 ft | 1 kts | 109° |